sensor_id;sensor_type;location;lat;lon;timestamp;temperature;humidity
67186;HTU21D;54116;53.518;49.398;2024-02-23T00:46:38;-31.13;118.99
67186;HTU21D;54116;53.518;49.398;2024-02-23T01:35:14;-31.70;118.99
67186;HTU21D;54116;53.518;49.398;2024-02-23T01:43:38;-31.68;118.99
67186;HTU21D;54116;53.518;49.398;2024-02-23T01:48:45;-31.57;118.99
67186;HTU21D;54116;53.518;49.398;2024-02-23T02:14:27;-31.43;118.99
67186;HTU21D;54116;53.518;49.398;2024-02-23T02:16:57;-31.48;118.99
67186;HTU21D;54116;53.518;49.398;2024-02-23T02:22:38;-31.88;118.99
67186;HTU21D;54116;53.518;49.398;2024-02-23T02:28:37;-32.37;118.99
67186;HTU21D;54116;53.518;49.398;2024-02-23T02:31:43;-32.37;118.99
67186;HTU21D;54116;53.518;49.398;2024-02-23T02:34:15;-32.06;118.99
67186;HTU21D;54116;53.518;49.398;2024-02-23T02:39:43;-31.99;118.99
67186;HTU21D;54116;53.518;49.398;2024-02-23T02:42:21;-31.91;118.99
67186;HTU21D;54116;53.518;49.398;2024-02-23T02:44:47;-31.97;118.99
67186;HTU21D;54116;53.518;49.398;2024-02-23T02:48:23;-31.82;118.99
67186;HTU21D;54116;53.518;49.398;2024-02-23T02:51:55;-31.85;118.99
67186;HTU21D;54116;53.518;49.398;2024-02-23T03:10:38;-31.44;118.99
67186;HTU21D;54116;53.518;49.398;2024-02-23T03:13:04;-31.34;118.99
67186;HTU21D;54116;53.518;49.398;2024-02-23T03:16:55;-31.19;118.99
67186;HTU21D;54116;53.518;49.398;2024-02-23T03:24:48;-31.19;118.99
67186;HTU21D;54116;53.518;49.398;2024-02-23T03:27:14;-31.24;118.99
67186;HTU21D;54116;53.518;49.398;2024-02-23T03:29:40;-31.26;118.99
67186;HTU21D;54116;53.518;49.398;2024-02-23T03:32:07;-31.19;118.99
67186;HTU21D;54116;53.518;49.398;2024-02-23T03:36:24;-31.08;118.99
67186;HTU21D;54116;53.518;49.398;2024-02-23T03:38:55;-31.06;118.99
67186;HTU21D;54116;53.518;49.398;2024-02-23T03:41:21;-31.05;118.99
67186;HTU21D;54116;53.518;49.398;2024-02-23T03:43:47;-31.01;118.99
67186;HTU21D;54116;53.518;49.398;2024-02-23T03:46:52;-30.85;118.99
67186;HTU21D;54116;53.518;49.398;2024-02-23T03:50:09;-30.74;118.99
67186;HTU21D;54116;53.518;49.398;2024-02-23T03:53:15;-30.69;118.99
67186;HTU21D;54116;53.518;49.398;2024-02-23T03:55:42;-30.68;118.99
67186;HTU21D;54116;53.518;49.398;2024-02-23T04:03:56;-30.67;118.99
67186;HTU21D;54116;53.518;49.398;2024-02-23T04:06:22;-30.62;118.99
67186;HTU21D;54116;53.518;49.398;2024-02-23T04:14:21;-30.78;118.99
67186;HTU21D;54116;53.518;49.398;2024-02-23T04:17:07;-30.61;118.99
67186;HTU21D;54116;53.518;49.398;2024-02-23T04:19:33;-30.44;118.99
67186;HTU21D;54116;53.518;49.398;2024-02-23T04:23:45;-30.19;118.99
67186;HTU21D;54116;53.518;49.398;2024-02-23T04:27:17;-29.85;118.99
67186;HTU21D;54116;53.518;49.398;2024-02-23T04:34:20;-28.98;118.99
67186;HTU21D;54116;53.518;49.398;2024-02-23T04:36:46;-28.84;118.99
67186;HTU21D;54116;53.518;49.398;2024-02-23T04:44:14;-27.96;118.99
67186;HTU21D;54116;53.518;49.398;2024-02-23T04:46:40;-26.40;118.99
67186;HTU21D;54116;53.518;49.398;2024-02-23T04:50:15;-24.45;118.99
67186;HTU21D;54116;53.518;49.398;2024-02-23T04:56:35;-23.21;118.99
67186;HTU21D;54116;53.518;49.398;2024-02-23T04:59:19;-22.84;118.99
67186;HTU21D;54116;53.518;49.398;2024-02-23T05:08:15;-24.03;118.99
67186;HTU21D;54116;53.518;49.398;2024-02-23T05:10:41;-24.31;118.99
67186;HTU21D;54116;53.518;49.398;2024-02-23T05:14:15;-24.47;118.99
67186;HTU21D;54116;53.518;49.398;2024-02-23T05:16:41;-24.52;118.99
67186;HTU21D;54116;53.518;49.398;2024-02-23T05:19:56;-24.47;118.99
67186;HTU21D;54116;53.518;49.398;2024-02-23T05:23:41;-24.34;118.99
67186;HTU21D;54116;53.518;49.398;2024-02-23T05:31:52;-23.65;118.99
67186;HTU21D;54116;53.518;49.398;2024-02-23T05:38:35;-23.24;118.99
67186;HTU21D;54116;53.518;49.398;2024-02-23T05:41:37;-22.94;118.99
67186;HTU21D;54116;53.518;49.398;2024-02-23T05:44:44;-22.76;118.99
67186;HTU21D;54116;53.518;49.398;2024-02-23T05:53:32;-22.15;118.99
67186;HTU21D;54116;53.518;49.398;2024-02-23T05:55:58;-22.03;118.99
67186;HTU21D;54116;53.518;49.398;2024-02-23T05:59:07;-22.16;118.99
67186;HTU21D;54116;53.518;49.398;2024-02-23T06:01:33;-21.99;118.99
67186;HTU21D;54116;53.518;49.398;2024-02-23T06:09:38;-21.82;118.99
67186;HTU21D;54116;53.518;49.398;2024-02-23T06:12:05;-21.71;118.99
67186;HTU21D;54116;53.518;49.398;2024-02-23T06:40:03;-20.78;118.99
67186;HTU21D;54116;53.518;49.398;2024-02-23T06:42:30;-20.73;118.99
67186;HTU21D;54116;53.518;49.398;2024-02-23T06:44:56;-20.67;118.99
67186;HTU21D;54116;53.518;49.398;2024-02-23T06:47:22;-20.54;118.99
67186;HTU21D;54116;53.518;49.398;2024-02-23T06:49:48;-20.44;118.99
67186;HTU21D;54116;53.518;49.398;2024-02-23T06:52:14;-20.39;118.99
67186;HTU21D;54116;53.518;49.398;2024-02-23T07:18:24;-19.64;118.99
67186;HTU21D;54116;53.518;49.398;2024-02-23T07:20:50;-19.61;118.99
67186;HTU21D;54116;53.518;49.398;2024-02-23T07:31:03;-19.40;118.99
67186;HTU21D;54116;53.518;49.398;2024-02-23T07:47:16;-19.10;118.99
67186;HTU21D;54116;53.518;49.398;2024-02-23T07:59:45;-18.88;118.99
67186;HTU21D;54116;53.518;49.398;2024-02-23T08:02:11;-18.78;118.99
67186;HTU21D;54116;53.518;49.398;2024-02-23T08:04:38;-18.98;118.99
67186;HTU21D;54116;53.518;49.398;2024-02-23T08:07:04;-18.90;118.99
67186;HTU21D;54116;53.518;49.398;2024-02-23T08:09:30;-18.73;118.99
67186;HTU21D;54116;53.518;49.398;2024-02-23T08:16:21;-18.66;118.99
67186;HTU21D;54116;53.518;49.398;2024-02-23T08:21:17;-18.57;118.99
67186;HTU21D;54116;53.518;49.398;2024-02-23T08:23:44;-18.60;118.99
67186;HTU21D;54116;53.518;49.398;2024-02-23T08:26:10;-18.53;118.99
67186;HTU21D;54116;53.518;49.398;2024-02-23T08:28:36;-18.44;118.99
67186;HTU21D;54116;53.518;49.398;2024-02-23T08:31:02;-18.48;118.99
67186;HTU21D;54116;53.518;49.398;2024-02-23T08:33:29;-18.54;118.99
67186;HTU21D;54116;53.518;49.398;2024-02-23T08:35:55;-18.46;118.99
67186;HTU21D;54116;53.518;49.398;2024-02-23T08:38:21;-18.37;118.99
67186;HTU21D;54116;53.518;49.398;2024-02-23T08:40:47;-18.21;118.99
67186;HTU21D;54116;53.518;49.398;2024-02-23T08:43:13;-18.24;118.99
67186;HTU21D;54116;53.518;49.398;2024-02-23T08:45:40;-18.17;118.99
67186;HTU21D;54116;53.518;49.398;2024-02-23T08:48:07;-18.11;118.99
67186;HTU21D;54116;53.518;49.398;2024-02-23T08:50:33;-18.05;118.99
67186;HTU21D;54116;53.518;49.398;2024-02-23T08:53:00;-17.97;118.99
67186;HTU21D;54116;53.518;49.398;2024-02-23T08:55:26;-17.91;118.99
67186;HTU21D;54116;53.518;49.398;2024-02-23T08:57:52;-17.94;118.99
67186;HTU21D;54116;53.518;49.398;2024-02-23T09:00:19;-17.91;118.99
67186;HTU21D;54116;53.518;49.398;2024-02-23T09:02:45;-17.81;118.99
67186;HTU21D;54116;53.518;49.398;2024-02-23T09:05:12;-17.71;118.99
67186;HTU21D;54116;53.518;49.398;2024-02-23T09:07:38;-17.70;118.99
67186;HTU21D;54116;53.518;49.398;2024-02-23T09:10:04;-17.92;118.99
67186;HTU21D;54116;53.518;49.398;2024-02-23T09:12:30;-17.80;118.99
67186;HTU21D;54116;53.518;49.398;2024-02-23T09:14:57;-17.82;118.99
67186;HTU21D;54116;53.518;49.398;2024-02-23T09:17:23;-17.75;118.99
67186;HTU21D;54116;53.518;49.398;2024-02-23T09:19:49;-17.87;118.99
67186;HTU21D;54116;53.518;49.398;2024-02-23T09:22:15;-17.77;118.99
67186;HTU21D;54116;53.518;49.398;2024-02-23T09:24:41;-17.84;118.99
67186;HTU21D;54116;53.518;49.398;2024-02-23T09:27:08;-17.74;118.99
67186;HTU21D;54116;53.518;49.398;2024-02-23T09:29:34;-17.84;118.99
67186;HTU21D;54116;53.518;49.398;2024-02-23T09:32:00;-17.78;118.99
67186;HTU21D;54116;53.518;49.398;2024-02-23T09:34:27;-17.69;118.99
67186;HTU21D;54116;53.518;49.398;2024-02-23T09:36:53;-17.59;118.99
67186;HTU21D;54116;53.518;49.398;2024-02-23T09:39:19;-17.48;118.99
67186;HTU21D;54116;53.518;49.398;2024-02-23T09:41:50;-17.41;118.99
67186;HTU21D;54116;53.518;49.398;2024-02-23T09:44:18;-17.58;118.99
67186;HTU21D;54116;53.518;49.398;2024-02-23T09:46:47;-17.38;118.99
67186;HTU21D;54116;53.518;49.398;2024-02-23T09:49:14;-17.29;118.99
67186;HTU21D;54116;53.518;49.398;2024-02-23T09:51:41;-17.33;118.99
67186;HTU21D;54116;53.518;49.398;2024-02-23T09:54:07;-17.24;118.99
67186;HTU21D;54116;53.518;49.398;2024-02-23T09:56:33;-17.17;118.99
67186;HTU21D;54116;53.518;49.398;2024-02-23T09:59:03;-17.27;118.99
67186;HTU21D;54116;53.518;49.398;2024-02-23T10:01:31;-17.61;118.99
67186;HTU21D;54116;53.518;49.398;2024-02-23T10:04:17;-17.53;118.99
67186;HTU21D;54116;53.518;49.398;2024-02-23T10:06:44;-17.54;118.99
67186;HTU21D;54116;53.518;49.398;2024-02-23T10:09:10;-17.57;118.99
67186;HTU21D;54116;53.518;49.398;2024-02-23T10:11:38;-17.75;118.99
67186;HTU21D;54116;53.518;49.398;2024-02-23T10:14:04;-17.80;118.99
67186;HTU21D;54116;53.518;49.398;2024-02-23T10:16:30;-17.97;118.99
67186;HTU21D;54116;53.518;49.398;2024-02-23T10:18:57;-17.94;118.99
67186;HTU21D;54116;53.518;49.398;2024-02-23T10:21:23;-18.12;118.99
67186;HTU21D;54116;53.518;49.398;2024-02-23T10:23:51;-18.09;118.99
67186;HTU21D;54116;53.518;49.398;2024-02-23T10:26:17;-17.94;118.99
67186;HTU21D;54116;53.518;49.398;2024-02-23T10:28:45;-17.76;118.99
67186;HTU21D;54116;53.518;49.398;2024-02-23T10:31:14;-17.63;118.99
67186;HTU21D;54116;53.518;49.398;2024-02-23T10:33:41;-17.66;118.99
67186;HTU21D;54116;53.518;49.398;2024-02-23T10:36:09;-17.75;118.99
67186;HTU21D;54116;53.518;49.398;2024-02-23T10:38:39;-17.77;118.99
67186;HTU21D;54116;53.518;49.398;2024-02-23T10:41:06;-17.58;118.99
67186;HTU21D;54116;53.518;49.398;2024-02-23T10:43:44;-17.54;118.99
67186;HTU21D;54116;53.518;49.398;2024-02-23T10:46:31;-17.62;118.99
67186;HTU21D;54116;53.518;49.398;2024-02-23T10:48:58;-17.47;118.99
67186;HTU21D;54116;53.518;49.398;2024-02-23T10:51:28;-17.60;118.99
67186;HTU21D;54116;53.518;49.398;2024-02-23T10:53:55;-17.63;118.99
67186;HTU21D;54116;53.518;49.398;2024-02-23T10:56:21;-17.66;118.99
67186;HTU21D;54116;53.518;49.398;2024-02-23T10:58:51;-17.35;118.99
67186;HTU21D;54116;53.518;49.398;2024-02-23T11:01:18;-17.33;118.99
67186;HTU21D;54116;53.518;49.398;2024-02-23T11:03:46;-17.32;118.99
67186;HTU21D;54116;53.518;49.398;2024-02-23T11:06:16;-17.29;118.99
67186;HTU21D;54116;53.518;49.398;2024-02-23T11:08:47;-17.38;118.99
67186;HTU21D;54116;53.518;49.398;2024-02-23T11:11:16;-17.47;118.99
67186;HTU21D;54116;53.518;49.398;2024-02-23T11:13:44;-17.28;118.99
67186;HTU21D;54116;53.518;49.398;2024-02-23T11:16:21;-17.26;118.99
67186;HTU21D;54116;53.518;49.398;2024-02-23T11:18:48;-17.42;118.99
67186;HTU21D;54116;53.518;49.398;2024-02-23T11:21:14;-17.35;118.99
67186;HTU21D;54116;53.518;49.398;2024-02-23T11:24:03;-17.29;118.99
67186;HTU21D;54116;53.518;49.398;2024-02-23T11:26:48;-17.17;118.99
67186;HTU21D;54116;53.518;49.398;2024-02-23T11:29:14;-17.10;118.99
67186;HTU21D;54116;53.518;49.398;2024-02-23T11:31:47;-17.17;118.99
67186;HTU21D;54116;53.518;49.398;2024-02-23T11:34:13;-17.16;118.99
67186;HTU21D;54116;53.518;49.398;2024-02-23T11:36:39;-17.43;118.99
67186;HTU21D;54116;53.518;49.398;2024-02-23T11:39:05;-17.61;118.99
67186;HTU21D;54116;53.518;49.398;2024-02-23T11:41:31;-17.52;118.99
67186;HTU21D;54116;53.518;49.398;2024-02-23T11:43:57;-17.46;118.99
67186;HTU21D;54116;53.518;49.398;2024-02-23T11:46:29;-17.31;118.99
67186;HTU21D;54116;53.518;49.398;2024-02-23T11:48:55;-17.32;118.99
67186;HTU21D;54116;53.518;49.398;2024-02-23T11:51:22;-17.29;118.99
67186;HTU21D;54116;53.518;49.398;2024-02-23T11:53:49;-17.46;118.99
67186;HTU21D;54116;53.518;49.398;2024-02-23T11:56:16;-17.51;118.99
67186;HTU21D;54116;53.518;49.398;2024-02-23T11:58:43;-17.35;118.99
67186;HTU21D;54116;53.518;49.398;2024-02-23T12:01:09;-17.28;118.99
67186;HTU21D;54116;53.518;49.398;2024-02-23T12:03:35;-17.32;118.99
67186;HTU21D;54116;53.518;49.398;2024-02-23T12:06:02;-17.54;118.99
67186;HTU21D;54116;53.518;49.398;2024-02-23T12:08:30;-17.67;118.99
67186;HTU21D;54116;53.518;49.398;2024-02-23T12:10:59;-17.76;118.99
67186;HTU21D;54116;53.518;49.398;2024-02-23T12:13:26;-17.76;118.99
67186;HTU21D;54116;53.518;49.398;2024-02-23T12:15:53;-18.10;118.99
67186;HTU21D;54116;53.518;49.398;2024-02-23T12:18:22;-18.15;118.99
67186;HTU21D;54116;53.518;49.398;2024-02-23T12:20:52;-18.28;118.99
67186;HTU21D;54116;53.518;49.398;2024-02-23T12:23:18;-18.25;118.99
67186;HTU21D;54116;53.518;49.398;2024-02-23T12:25:57;-18.09;118.99
67186;HTU21D;54116;53.518;49.398;2024-02-23T12:28:23;-18.04;118.99
67186;HTU21D;54116;53.518;49.398;2024-02-23T12:31:03;-18.05;118.99
67186;HTU21D;54116;53.518;49.398;2024-02-23T12:33:32;-18.05;118.99
67186;HTU21D;54116;53.518;49.398;2024-02-23T12:35:58;-18.17;118.99
67186;HTU21D;54116;53.518;49.398;2024-02-23T12:38:25;-18.32;118.99
67186;HTU21D;54116;53.518;49.398;2024-02-23T12:40:51;-18.32;118.99
67186;HTU21D;54116;53.518;49.398;2024-02-23T12:43:18;-18.30;118.99
67186;HTU21D;54116;53.518;49.398;2024-02-23T12:45:47;-18.31;118.99
67186;HTU21D;54116;53.518;49.398;2024-02-23T12:48:18;-18.48;118.99
67186;HTU21D;54116;53.518;49.398;2024-02-23T12:50:44;-18.56;118.99
67186;HTU21D;54116;53.518;49.398;2024-02-23T12:53:31;-18.62;118.99
67186;HTU21D;54116;53.518;49.398;2024-02-23T12:55:59;-18.61;118.99
67186;HTU21D;54116;53.518;49.398;2024-02-23T12:58:25;-18.58;118.99
67186;HTU21D;54116;53.518;49.398;2024-02-23T13:00:52;-18.77;118.99
67186;HTU21D;54116;53.518;49.398;2024-02-23T13:03:18;-18.87;118.99
67186;HTU21D;54116;53.518;49.398;2024-02-23T13:05:44;-18.93;118.99
67186;HTU21D;54116;53.518;49.398;2024-02-23T13:08:10;-19.08;118.99
67186;HTU21D;54116;53.518;49.398;2024-02-23T13:10:38;-19.09;118.99
67186;HTU21D;54116;53.518;49.398;2024-02-23T13:13:04;-19.22;118.99
67186;HTU21D;54116;53.518;49.398;2024-02-23T13:15:30;-19.34;118.99
67186;HTU21D;54116;53.518;49.398;2024-02-23T13:17:58;-19.44;118.99
67186;HTU21D;54116;53.518;49.398;2024-02-23T13:20:24;-19.65;118.99
67186;HTU21D;54116;53.518;49.398;2024-02-23T13:22:50;-19.76;118.99
67186;HTU21D;54116;53.518;49.398;2024-02-23T13:25:16;-19.82;118.99
67186;HTU21D;54116;53.518;49.398;2024-02-23T13:27:42;-19.89;118.99
67186;HTU21D;54116;53.518;49.398;2024-02-23T13:30:09;-20.06;118.99
67186;HTU21D;54116;53.518;49.398;2024-02-23T13:32:35;-20.16;118.99
67186;HTU21D;54116;53.518;49.398;2024-02-23T13:35:01;-20.29;118.99
67186;HTU21D;54116;53.518;49.398;2024-02-23T13:37:30;-20.44;118.99
67186;HTU21D;54116;53.518;49.398;2024-02-23T13:42:40;-20.73;118.99
67186;HTU21D;54116;53.518;49.398;2024-02-23T13:45:07;-20.81;118.99
67186;HTU21D;54116;53.518;49.398;2024-02-23T13:47:35;-21.05;118.99
67186;HTU21D;54116;53.518;49.398;2024-02-23T13:50:02;-21.14;118.99
67186;HTU21D;54116;53.518;49.398;2024-02-23T13:52:28;-21.24;118.99
67186;HTU21D;54116;53.518;49.398;2024-02-23T13:54:55;-21.30;118.99
67186;HTU21D;54116;53.518;49.398;2024-02-23T13:57:21;-21.46;118.99
67186;HTU21D;54116;53.518;49.398;2024-02-23T13:59:47;-21.50;118.99
67186;HTU21D;54116;53.518;49.398;2024-02-23T14:02:15;-21.60;118.99
67186;HTU21D;54116;53.518;49.398;2024-02-23T14:04:42;-21.76;118.99
67186;HTU21D;54116;53.518;49.398;2024-02-23T14:07:08;-21.88;118.99
67186;HTU21D;54116;53.518;49.398;2024-02-23T14:09:34;-21.92;118.99
67186;HTU21D;54116;53.518;49.398;2024-02-23T14:12:01;-22.18;118.99
67186;HTU21D;54116;53.518;49.398;2024-02-23T14:14:27;-22.32;118.99
67186;HTU21D;54116;53.518;49.398;2024-02-23T14:16:53;-22.42;118.99
67186;HTU21D;54116;53.518;49.398;2024-02-23T14:19:21;-22.47;118.99
67186;HTU21D;54116;53.518;49.398;2024-02-23T14:21:47;-22.56;118.99
67186;HTU21D;54116;53.518;49.398;2024-02-23T14:24:14;-22.69;118.99
67186;HTU21D;54116;53.518;49.398;2024-02-23T14:26:40;-22.70;118.99
67186;HTU21D;54116;53.518;49.398;2024-02-23T14:29:06;-22.71;118.99
67186;HTU21D;54116;53.518;49.398;2024-02-23T14:31:32;-22.82;118.99
67186;HTU21D;54116;53.518;49.398;2024-02-23T14:33:58;-22.95;118.99
67186;HTU21D;54116;53.518;49.398;2024-02-23T14:36:24;-23.17;118.99
67186;HTU21D;54116;53.518;49.398;2024-02-23T14:38:52;-23.25;118.99
67186;HTU21D;54116;53.518;49.398;2024-02-23T14:41:18;-23.18;118.99
67186;HTU21D;54116;53.518;49.398;2024-02-23T14:43:46;-23.36;118.99
67186;HTU21D;54116;53.518;49.398;2024-02-23T14:46:12;-23.37;118.99
67186;HTU21D;54116;53.518;49.398;2024-02-23T14:48:38;-23.44;118.99
67186;HTU21D;54116;53.518;49.398;2024-02-23T14:51:04;-23.51;118.99
67186;HTU21D;54116;53.518;49.398;2024-02-23T14:56:16;-23.74;118.99
67186;HTU21D;54116;53.518;49.398;2024-02-23T14:58:43;-23.65;118.99
67186;HTU21D;54116;53.518;49.398;2024-02-23T15:01:09;-23.74;118.99
67186;HTU21D;54116;53.518;49.398;2024-02-23T15:03:35;-23.61;118.99
67186;HTU21D;54116;53.518;49.398;2024-02-23T15:06:01;-23.57;118.99
67186;HTU21D;54116;53.518;49.398;2024-02-23T15:08:27;-23.57;118.99
67186;HTU21D;54116;53.518;49.398;2024-02-23T15:10:54;-23.73;118.99
67186;HTU21D;54116;53.518;49.398;2024-02-23T15:13:20;-23.64;118.99
67186;HTU21D;54116;53.518;49.398;2024-02-23T15:15:47;-23.76;118.99
67186;HTU21D;54116;53.518;49.398;2024-02-23T15:18:13;-23.69;118.99
67186;HTU21D;54116;53.518;49.398;2024-02-23T15:20:39;-23.75;118.99
67186;HTU21D;54116;53.518;49.398;2024-02-23T15:23:05;-23.76;118.99
67186;HTU21D;54116;53.518;49.398;2024-02-23T15:25:31;-23.76;118.99
67186;HTU21D;54116;53.518;49.398;2024-02-23T15:27:58;-23.60;118.99
67186;HTU21D;54116;53.518;49.398;2024-02-23T15:30:25;-23.53;118.99
67186;HTU21D;54116;53.518;49.398;2024-02-23T15:32:51;-23.50;118.99
67186;HTU21D;54116;53.518;49.398;2024-02-23T15:35:17;-23.54;118.99
67186;HTU21D;54116;53.518;49.398;2024-02-23T15:37:43;-23.53;118.99
67186;HTU21D;54116;53.518;49.398;2024-02-23T15:40:10;-23.62;118.99
67186;HTU21D;54116;53.518;49.398;2024-02-23T15:42:36;-23.65;118.99
67186;HTU21D;54116;53.518;49.398;2024-02-23T15:45:04;-23.47;118.99
67186;HTU21D;54116;53.518;49.398;2024-02-23T15:47:32;-23.29;118.99
67186;HTU21D;54116;53.518;49.398;2024-02-23T15:49:58;-23.20;118.99
67186;HTU21D;54116;53.518;49.398;2024-02-23T15:52:24;-23.23;118.99
67186;HTU21D;54116;53.518;49.398;2024-02-23T15:54:51;-23.14;118.99
67186;HTU21D;54116;53.518;49.398;2024-02-23T15:57:18;-23.25;118.99
67186;HTU21D;54116;53.518;49.398;2024-02-23T15:59:46;-23.29;118.99
67186;HTU21D;54116;53.518;49.398;2024-02-23T16:02:12;-23.30;118.99
67186;HTU21D;54116;53.518;49.398;2024-02-23T16:04:39;-23.44;118.99
67186;HTU21D;54116;53.518;49.398;2024-02-23T16:07:24;-23.45;118.99
67186;HTU21D;54116;53.518;49.398;2024-02-23T16:09:50;-23.47;118.99
67186;HTU21D;54116;53.518;49.398;2024-02-23T16:12:17;-23.57;118.99
67186;HTU21D;54116;53.518;49.398;2024-02-23T16:14:43;-23.61;118.99
67186;HTU21D;54116;53.518;49.398;2024-02-23T16:17:09;-23.62;118.99
67186;HTU21D;54116;53.518;49.398;2024-02-23T16:19:35;-23.59;118.99
67186;HTU21D;54116;53.518;49.398;2024-02-23T16:22:02;-23.48;118.99
67186;HTU21D;54116;53.518;49.398;2024-02-23T16:24:28;-23.42;118.99
67186;HTU21D;54116;53.518;49.398;2024-02-23T16:26:54;-23.38;118.99
67186;HTU21D;54116;53.518;49.398;2024-02-23T16:29:20;-23.45;118.99
67186;HTU21D;54116;53.518;49.398;2024-02-23T16:31:49;-23.46;118.99
67186;HTU21D;54116;53.518;49.398;2024-02-23T16:34:15;-23.53;118.99
67186;HTU21D;54116;53.518;49.398;2024-02-23T16:36:43;-23.54;118.99
67186;HTU21D;54116;53.518;49.398;2024-02-23T16:39:10;-23.52;118.99
67186;HTU21D;54116;53.518;49.398;2024-02-23T16:41:37;-23.59;118.99
67186;HTU21D;54116;53.518;49.398;2024-02-23T16:44:03;-23.60;118.99
67186;HTU21D;54116;53.518;49.398;2024-02-23T16:46:30;-23.59;118.99
67186;HTU21D;54116;53.518;49.398;2024-02-23T16:48:56;-23.62;118.99
67186;HTU21D;54116;53.518;49.398;2024-02-23T16:51:24;-23.57;118.99
67186;HTU21D;54116;53.518;49.398;2024-02-23T16:53:51;-23.50;118.99
67186;HTU21D;54116;53.518;49.398;2024-02-23T16:56:17;-23.45;118.99
67186;HTU21D;54116;53.518;49.398;2024-02-23T16:58:43;-23.49;118.99
67186;HTU21D;54116;53.518;49.398;2024-02-23T17:01:09;-23.42;118.99
67186;HTU21D;54116;53.518;49.398;2024-02-23T17:03:35;-23.61;118.99
67186;HTU21D;54116;53.518;49.398;2024-02-23T17:06:02;-23.62;118.99
67186;HTU21D;54116;53.518;49.398;2024-02-23T17:08:31;-23.54;118.99
67186;HTU21D;54116;53.518;49.398;2024-02-23T17:10:58;-23.57;118.99
67186;HTU21D;54116;53.518;49.398;2024-02-23T17:13:24;-23.49;118.99
67186;HTU21D;54116;53.518;49.398;2024-02-23T17:15:52;-23.46;118.99
67186;HTU21D;54116;53.518;49.398;2024-02-23T17:18:19;-23.44;118.99
67186;HTU21D;54116;53.518;49.398;2024-02-23T17:20:49;-23.52;118.99
67186;HTU21D;54116;53.518;49.398;2024-02-23T17:23:15;-23.56;118.99
67186;HTU21D;54116;53.518;49.398;2024-02-23T17:25:42;-23.64;118.99
67186;HTU21D;54116;53.518;49.398;2024-02-23T17:28:08;-23.63;118.99
67186;HTU21D;54116;53.518;49.398;2024-02-23T17:30:34;-23.65;118.99
67186;HTU21D;54116;53.518;49.398;2024-02-23T17:33:00;-23.59;118.99
67186;HTU21D;54116;53.518;49.398;2024-02-23T17:35:26;-23.64;118.99
67186;HTU21D;54116;53.518;49.398;2024-02-23T17:37:52;-23.72;118.99
67186;HTU21D;54116;53.518;49.398;2024-02-23T17:40:19;-23.73;118.99
67186;HTU21D;54116;53.518;49.398;2024-02-23T17:42:45;-23.93;118.99
67186;HTU21D;54116;53.518;49.398;2024-02-23T17:45:11;-23.97;118.99
67186;HTU21D;54116;53.518;49.398;2024-02-23T17:47:37;-23.94;118.99
67186;HTU21D;54116;53.518;49.398;2024-02-23T17:50:04;-23.98;118.99
67186;HTU21D;54116;53.518;49.398;2024-02-23T17:52:30;-23.99;118.99
67186;HTU21D;54116;53.518;49.398;2024-02-23T17:54:57;-24.02;118.99
67186;HTU21D;54116;53.518;49.398;2024-02-23T17:57:24;-24.18;118.99
67186;HTU21D;54116;53.518;49.398;2024-02-23T17:59:50;-24.48;118.99
67186;HTU21D;54116;53.518;49.398;2024-02-23T18:02:16;-24.73;118.99
67186;HTU21D;54116;53.518;49.398;2024-02-23T18:04:42;-24.87;118.99
67186;HTU21D;54116;53.518;49.398;2024-02-23T18:07:12;-24.97;118.99
67186;HTU21D;54116;53.518;49.398;2024-02-23T18:09:39;-25.04;118.99
67186;HTU21D;54116;53.518;49.398;2024-02-23T18:12:06;-25.25;118.99
67186;HTU21D;54116;53.518;49.398;2024-02-23T18:14:32;-25.47;118.99
67186;HTU21D;54116;53.518;49.398;2024-02-23T18:16:58;-25.55;118.99
67186;HTU21D;54116;53.518;49.398;2024-02-23T18:19:43;-25.66;118.99
67186;HTU21D;54116;53.518;49.398;2024-02-23T18:22:11;-25.84;118.99
67186;HTU21D;54116;53.518;49.398;2024-02-23T18:24:38;-26.11;118.99
67186;HTU21D;54116;53.518;49.398;2024-02-23T18:27:04;-26.04;118.99
67186;HTU21D;54116;53.518;49.398;2024-02-23T18:29:31;-26.12;118.99
67186;HTU21D;54116;53.518;49.398;2024-02-23T18:31:57;-26.23;118.99
67186;HTU21D;54116;53.518;49.398;2024-02-23T18:34:24;-26.41;118.99
67186;HTU21D;54116;53.518;49.398;2024-02-23T18:36:50;-26.25;118.99
67186;HTU21D;54116;53.518;49.398;2024-02-23T18:39:16;-26.31;118.99
67186;HTU21D;54116;53.518;49.398;2024-02-23T18:44:27;-26.42;118.99
67186;HTU21D;54116;53.518;49.398;2024-02-23T18:46:53;-26.46;118.99
67186;HTU21D;54116;53.518;49.398;2024-02-23T18:49:19;-26.37;118.99
67186;HTU21D;54116;53.518;49.398;2024-02-23T18:51:45;-26.35;118.99
67186;HTU21D;54116;53.518;49.398;2024-02-23T18:54:12;-26.41;118.99
67186;HTU21D;54116;53.518;49.398;2024-02-23T18:56:39;-26.42;118.99
67186;HTU21D;54116;53.518;49.398;2024-02-23T18:59:05;-26.52;118.99
67186;HTU21D;54116;53.518;49.398;2024-02-23T19:01:31;-26.59;118.99
67186;HTU21D;54116;53.518;49.398;2024-02-23T19:03:57;-26.59;118.99
67186;HTU21D;54116;53.518;49.398;2024-02-23T19:06:24;-26.68;118.99
67186;HTU21D;54116;53.518;49.398;2024-02-23T19:08:50;-26.76;118.99
67186;HTU21D;54116;53.518;49.398;2024-02-23T19:11:17;-26.72;118.99
67186;HTU21D;54116;53.518;49.398;2024-02-23T19:13:43;-26.70;118.99
67186;HTU21D;54116;53.518;49.398;2024-02-23T19:16:13;-26.76;118.99
